Terminal Aerodrome Forecast
Issued by NWS Central Illinois

Home | Current Version | Previous Version | Text Only | Print | Product List | Glossary On
Versions: 1 2 3 4 5 6 7 8 9 10 11 12 13 14 15 16 17 18 19 20 21 22 23 24 25
000
FTUS43 KILX 011744
TAFSPI
TAF
KSPI 011744Z 0118/0218 VRB03KT P6SM VCTS SCT025CB BKN120
     FM012200 VRB03KT P6SM -SHRA VCTS BKN025CB
     FM020800 06005KT 4SM -SHRA BR VCTS BKN025CB
     FM021400 06008KT P6SM VCSH BKN025=

USA.gov is the U.S. government's official web portal to all federal, state and local government web resources and services.